sensor_id;sensor_type;location;lat;lon;timestamp;P1;durP1;ratioP1;P2;durP2;ratioP2
28828;SDS011;15966;51.540;11.870;2024-01-30T00:01:43;11.02;;;8.27;;
28828;SDS011;15966;51.540;11.870;2024-01-30T00:04:10;11.40;;;8.50;;
28828;SDS011;15966;51.540;11.870;2024-01-30T00:06:36;12.80;;;8.88;;
28828;SDS011;15966;51.540;11.870;2024-01-30T00:09:02;10.13;;;8.07;;
28828;SDS011;15966;51.540;11.870;2024-01-30T00:11:28;9.25;;;8.30;;
28828;SDS011;15966;51.540;11.870;2024-01-30T00:13:54;11.23;;;8.45;;
28828;SDS011;15966;51.540;11.870;2024-01-30T00:16:24;9.13;;;7.53;;
28828;SDS011;15966;51.540;11.870;2024-01-30T00:18:52;11.32;;;8.23;;
28828;SDS011;15966;51.540;11.870;2024-01-30T00:21:18;9.63;;;8.23;;
28828;SDS011;15966;51.540;11.870;2024-01-30T00:23:45;10.82;;;9.00;;
28828;SDS011;15966;51.540;11.870;2024-01-30T00:26:11;9.95;;;8.68;;
28828;SDS011;15966;51.540;11.870;2024-01-30T00:28:39;11.70;;;8.93;;
28828;SDS011;15966;51.540;11.870;2024-01-30T00:31:08;10.73;;;7.97;;
28828;SDS011;15966;51.540;11.870;2024-01-30T00:33:41;11.35;;;8.60;;
28828;SDS011;15966;51.540;11.870;2024-01-30T00:36:07;13.70;;;9.23;;
28828;SDS011;15966;51.540;11.870;2024-01-30T00:38:34;13.07;;;9.52;;
28828;SDS011;15966;51.540;11.870;2024-01-30T00:41:00;11.65;;;9.10;;
28828;SDS011;15966;51.540;11.870;2024-01-30T00:43:29;10.93;;;8.23;;
28828;SDS011;15966;51.540;11.870;2024-01-30T00:45:56;10.13;;;8.85;;
28828;SDS011;15966;51.540;11.870;2024-01-30T00:48:23;12.35;;;8.68;;
28828;SDS011;15966;51.540;11.870;2024-01-30T00:50:49;12.77;;;9.05;;
28828;SDS011;15966;51.540;11.870;2024-01-30T00:53:15;12.77;;;8.52;;
28828;SDS011;15966;51.540;11.870;2024-01-30T00:55:41;10.18;;;8.55;;
28828;SDS011;15966;51.540;11.870;2024-01-30T00:58:07;10.00;;;8.02;;
28828;SDS011;15966;51.540;11.870;2024-01-30T01:00:33;9.27;;;8.20;;
28828;SDS011;15966;51.540;11.870;2024-01-30T01:02:59;9.02;;;7.85;;
28828;SDS011;15966;51.540;11.870;2024-01-30T01:05:25;12.10;;;9.07;;
28828;SDS011;15966;51.540;11.870;2024-01-30T01:07:51;15.98;;;9.95;;
28828;SDS011;15966;51.540;11.870;2024-01-30T01:10:18;12.25;;;9.10;;
28828;SDS011;15966;51.540;11.870;2024-01-30T01:12:44;12.90;;;8.52;;
28828;SDS011;15966;51.540;11.870;2024-01-30T01:15:11;11.50;;;7.93;;
28828;SDS011;15966;51.540;11.870;2024-01-30T01:17:37;10.52;;;8.60;;
28828;SDS011;15966;51.540;11.870;2024-01-30T01:20:04;9.77;;;8.77;;
28828;SDS011;15966;51.540;11.870;2024-01-30T01:22:31;14.32;;;10.40;;
28828;SDS011;15966;51.540;11.870;2024-01-30T01:24:58;10.38;;;8.23;;
28828;SDS011;15966;51.540;11.870;2024-01-30T01:27:24;12.50;;;8.55;;
28828;SDS011;15966;51.540;11.870;2024-01-30T01:29:50;13.85;;;9.20;;
28828;SDS011;15966;51.540;11.870;2024-01-30T01:32:17;11.73;;;8.82;;
28828;SDS011;15966;51.540;11.870;2024-01-30T01:34:43;9.50;;;8.55;;
28828;SDS011;15966;51.540;11.870;2024-01-30T01:37:09;10.10;;;8.27;;
28828;SDS011;15966;51.540;11.870;2024-01-30T01:39:35;10.05;;;9.00;;
28828;SDS011;15966;51.540;11.870;2024-01-30T01:42:01;9.07;;;8.13;;
28828;SDS011;15966;51.540;11.870;2024-01-30T01:44:27;10.15;;;9.10;;
28828;SDS011;15966;51.540;11.870;2024-01-30T01:46:54;12.52;;;8.75;;
28828;SDS011;15966;51.540;11.870;2024-01-30T01:49:21;13.20;;;9.07;;
28828;SDS011;15966;51.540;11.870;2024-01-30T01:51:48;10.48;;;8.38;;
28828;SDS011;15966;51.540;11.870;2024-01-30T01:54:14;12.52;;;8.98;;
28828;SDS011;15966;51.540;11.870;2024-01-30T01:56:42;11.45;;;9.63;;
28828;SDS011;15966;51.540;11.870;2024-01-30T01:59:08;12.05;;;9.02;;
28828;SDS011;15966;51.540;11.870;2024-01-30T02:01:37;9.55;;;7.82;;
28828;SDS011;15966;51.540;11.870;2024-01-30T02:04:06;10.52;;;9.00;;
28828;SDS011;15966;51.540;11.870;2024-01-30T02:06:33;12.10;;;10.32;;
28828;SDS011;15966;51.540;11.870;2024-01-30T02:08:59;9.00;;;8.10;;
28828;SDS011;15966;51.540;11.870;2024-01-30T02:11:26;10.00;;;8.85;;
28828;SDS011;15966;51.540;11.870;2024-01-30T02:13:52;11.90;;;9.15;;
28828;SDS011;15966;51.540;11.870;2024-01-30T02:16:18;10.38;;;8.73;;
28828;SDS011;15966;51.540;11.870;2024-01-30T02:18:44;13.40;;;9.73;;
28828;SDS011;15966;51.540;11.870;2024-01-30T02:21:12;12.68;;;8.93;;
28828;SDS011;15966;51.540;11.870;2024-01-30T02:23:42;10.55;;;7.60;;
28828;SDS011;15966;51.540;11.870;2024-01-30T02:26:09;9.57;;;8.32;;
28828;SDS011;15966;51.540;11.870;2024-01-30T02:28:37;10.67;;;7.43;;
28828;SDS011;15966;51.540;11.870;2024-01-30T02:31:03;9.50;;;8.00;;
28828;SDS011;15966;51.540;11.870;2024-01-30T02:33:29;11.48;;;9.43;;
28828;SDS011;15966;51.540;11.870;2024-01-30T02:35:55;8.85;;;7.97;;
28828;SDS011;15966;51.540;11.870;2024-01-30T02:38:22;9.57;;;7.22;;
28828;SDS011;15966;51.540;11.870;2024-01-30T02:40:48;11.43;;;8.25;;
28828;SDS011;15966;51.540;11.870;2024-01-30T02:43:15;8.75;;;7.55;;
28828;SDS011;15966;51.540;11.870;2024-01-30T02:45:41;8.45;;;7.28;;
28828;SDS011;15966;51.540;11.870;2024-01-30T02:48:08;10.07;;;7.78;;
28828;SDS011;15966;51.540;11.870;2024-01-30T02:50:34;7.53;;;6.80;;
28828;SDS011;15966;51.540;11.870;2024-01-30T02:53:00;9.27;;;7.82;;
28828;SDS011;15966;51.540;11.870;2024-01-30T02:55:26;9.38;;;7.55;;
28828;SDS011;15966;51.540;11.870;2024-01-30T02:57:52;10.18;;;8.20;;
28828;SDS011;15966;51.540;11.870;2024-01-30T03:00:19;16.38;;;8.48;;
28828;SDS011;15966;51.540;11.870;2024-01-30T03:02:45;9.77;;;8.07;;
28828;SDS011;15966;51.540;11.870;2024-01-30T03:05:12;13.35;;;8.30;;
28828;SDS011;15966;51.540;11.870;2024-01-30T03:07:38;11.40;;;8.70;;
28828;SDS011;15966;51.540;11.870;2024-01-30T03:10:04;13.80;;;8.60;;
28828;SDS011;15966;51.540;11.870;2024-01-30T03:12:31;11.13;;;8.27;;
28828;SDS011;15966;51.540;11.870;2024-01-30T03:14:57;8.48;;;7.60;;
28828;SDS011;15966;51.540;11.870;2024-01-30T03:17:23;10.98;;;9.25;;
28828;SDS011;15966;51.540;11.870;2024-01-30T03:19:50;10.85;;;8.70;;
28828;SDS011;15966;51.540;11.870;2024-01-30T03:22:16;10.77;;;8.02;;
28828;SDS011;15966;51.540;11.870;2024-01-30T03:24:42;9.07;;;8.10;;
28828;SDS011;15966;51.540;11.870;2024-01-30T03:27:08;9.45;;;7.40;;
28828;SDS011;15966;51.540;11.870;2024-01-30T03:29:34;10.23;;;8.88;;
28828;SDS011;15966;51.540;11.870;2024-01-30T03:32:00;10.55;;;8.13;;
28828;SDS011;15966;51.540;11.870;2024-01-30T03:34:27;10.02;;;7.97;;
28828;SDS011;15966;51.540;11.870;2024-01-30T03:36:53;11.57;;;8.27;;
28828;SDS011;15966;51.540;11.870;2024-01-30T03:39:19;15.40;;;9.73;;
28828;SDS011;15966;51.540;11.870;2024-01-30T03:41:45;11.98;;;8.88;;
28828;SDS011;15966;51.540;11.870;2024-01-30T03:44:11;12.05;;;9.20;;
28828;SDS011;15966;51.540;11.870;2024-01-30T03:46:37;9.93;;;7.97;;
28828;SDS011;15966;51.540;11.870;2024-01-30T03:49:03;9.05;;;7.22;;
28828;SDS011;15966;51.540;11.870;2024-01-30T03:51:29;10.95;;;7.28;;
28828;SDS011;15966;51.540;11.870;2024-01-30T03:53:55;10.32;;;7.18;;
28828;SDS011;15966;51.540;11.870;2024-01-30T03:56:21;9.98;;;7.60;;
28828;SDS011;15966;51.540;11.870;2024-01-30T03:58:47;9.48;;;8.30;;
28828;SDS011;15966;51.540;11.870;2024-01-30T04:01:14;10.95;;;8.52;;
28828;SDS011;15966;51.540;11.870;2024-01-30T04:03:40;11.52;;;8.93;;
28828;SDS011;15966;51.540;11.870;2024-01-30T04:06:06;10.40;;;8.68;;
28828;SDS011;15966;51.540;11.870;2024-01-30T04:08:33;10.63;;;8.02;;
28828;SDS011;15966;51.540;11.870;2024-01-30T04:10:59;11.20;;;9.10;;
28828;SDS011;15966;51.540;11.870;2024-01-30T04:13:30;11.75;;;8.73;;
28828;SDS011;15966;51.540;11.870;2024-01-30T04:15:58;13.18;;;9.27;;
28828;SDS011;15966;51.540;11.870;2024-01-30T04:18:26;11.18;;;8.80;;
28828;SDS011;15966;51.540;11.870;2024-01-30T04:20:52;11.77;;;8.68;;
28828;SDS011;15966;51.540;11.870;2024-01-30T04:23:18;13.70;;;8.82;;
28828;SDS011;15966;51.540;11.870;2024-01-30T04:25:44;12.60;;;8.82;;
28828;SDS011;15966;51.540;11.870;2024-01-30T04:28:10;10.68;;;8.63;;
28828;SDS011;15966;51.540;11.870;2024-01-30T04:30:37;14.25;;;9.77;;
28828;SDS011;15966;51.540;11.870;2024-01-30T04:33:03;12.98;;;9.20;;
28828;SDS011;15966;51.540;11.870;2024-01-30T04:35:29;13.73;;;9.95;;
28828;SDS011;15966;51.540;11.870;2024-01-30T04:37:56;15.88;;;10.43;;
28828;SDS011;15966;51.540;11.870;2024-01-30T04:40:22;13.98;;;10.00;;
28828;SDS011;15966;51.540;11.870;2024-01-30T04:42:48;17.00;;;10.40;;
28828;SDS011;15966;51.540;11.870;2024-01-30T04:45:14;13.95;;;10.43;;
28828;SDS011;15966;51.540;11.870;2024-01-30T04:47:40;13.57;;;9.93;;
28828;SDS011;15966;51.540;11.870;2024-01-30T04:50:07;12.07;;;10.02;;
28828;SDS011;15966;51.540;11.870;2024-01-30T04:52:33;12.30;;;10.07;;
28828;SDS011;15966;51.540;11.870;2024-01-30T04:55:00;15.50;;;10.20;;
28828;SDS011;15966;51.540;11.870;2024-01-30T04:57:26;13.93;;;10.38;;
28828;SDS011;15966;51.540;11.870;2024-01-30T04:59:52;14.82;;;11.60;;
28828;SDS011;15966;51.540;11.870;2024-01-30T05:02:19;13.82;;;10.55;;
28828;SDS011;15966;51.540;11.870;2024-01-30T05:04:45;13.80;;;10.40;;
28828;SDS011;15966;51.540;11.870;2024-01-30T05:07:11;15.82;;;10.77;;
28828;SDS011;15966;51.540;11.870;2024-01-30T05:09:37;11.95;;;10.70;;
28828;SDS011;15966;51.540;11.870;2024-01-30T05:12:03;10.98;;;9.30;;
28828;SDS011;15966;51.540;11.870;2024-01-30T05:14:29;11.25;;;9.60;;
28828;SDS011;15966;51.540;11.870;2024-01-30T05:16:55;15.48;;;10.75;;
28828;SDS011;15966;51.540;11.870;2024-01-30T05:19:21;11.63;;;9.52;;
28828;SDS011;15966;51.540;11.870;2024-01-30T05:21:48;14.25;;;10.73;;
28828;SDS011;15966;51.540;11.870;2024-01-30T05:24:14;14.65;;;9.80;;
28828;SDS011;15966;51.540;11.870;2024-01-30T05:26:40;17.17;;;10.10;;
28828;SDS011;15966;51.540;11.870;2024-01-30T05:29:07;10.63;;;8.48;;
28828;SDS011;15966;51.540;11.870;2024-01-30T05:31:36;11.73;;;9.40;;
28828;SDS011;15966;51.540;11.870;2024-01-30T05:34:02;11.68;;;9.90;;
28828;SDS011;15966;51.540;11.870;2024-01-30T05:36:28;13.68;;;10.23;;
28828;SDS011;15966;51.540;11.870;2024-01-30T05:38:55;15.38;;;11.68;;
28828;SDS011;15966;51.540;11.870;2024-01-30T05:41:21;12.20;;;9.95;;
28828;SDS011;15966;51.540;11.870;2024-01-30T05:43:47;12.15;;;10.57;;
28828;SDS011;15966;51.540;11.870;2024-01-30T05:46:13;13.18;;;10.07;;
28828;SDS011;15966;51.540;11.870;2024-01-30T05:48:39;11.07;;;8.77;;
28828;SDS011;15966;51.540;11.870;2024-01-30T05:51:06;14.80;;;9.75;;
28828;SDS011;15966;51.540;11.870;2024-01-30T05:53:33;12.10;;;10.00;;
28828;SDS011;15966;51.540;11.870;2024-01-30T05:56:01;11.55;;;9.50;;
28828;SDS011;15966;51.540;11.870;2024-01-30T05:58:27;15.48;;;11.32;;
28828;SDS011;15966;51.540;11.870;2024-01-30T06:00:53;14.70;;;10.80;;
28828;SDS011;15966;51.540;11.870;2024-01-30T06:03:19;10.90;;;9.02;;
28828;SDS011;15966;51.540;11.870;2024-01-30T06:05:45;13.18;;;10.15;;
28828;SDS011;15966;51.540;11.870;2024-01-30T06:08:11;13.95;;;11.80;;
28828;SDS011;15966;51.540;11.870;2024-01-30T06:10:37;17.00;;;11.40;;
28828;SDS011;15966;51.540;11.870;2024-01-30T06:13:04;14.45;;;10.80;;
28828;SDS011;15966;51.540;11.870;2024-01-30T06:15:30;11.45;;;10.05;;
28828;SDS011;15966;51.540;11.870;2024-01-30T06:17:57;15.63;;;10.30;;
28828;SDS011;15966;51.540;11.870;2024-01-30T06:20:23;14.48;;;11.02;;
28828;SDS011;15966;51.540;11.870;2024-01-30T06:22:49;16.05;;;11.45;;
28828;SDS011;15966;51.540;11.870;2024-01-30T06:25:16;16.65;;;11.95;;
28828;SDS011;15966;51.540;11.870;2024-01-30T06:27:42;18.27;;;13.98;;
28828;SDS011;15966;51.540;11.870;2024-01-30T06:30:08;19.38;;;11.18;;
28828;SDS011;15966;51.540;11.870;2024-01-30T06:32:35;12.73;;;9.75;;
28828;SDS011;15966;51.540;11.870;2024-01-30T06:35:01;13.32;;;11.45;;
28828;SDS011;15966;51.540;11.870;2024-01-30T06:37:27;20.63;;;10.73;;
28828;SDS011;15966;51.540;11.870;2024-01-30T06:39:53;13.85;;;10.18;;
28828;SDS011;15966;51.540;11.870;2024-01-30T06:42:19;13.07;;;9.98;;
28828;SDS011;15966;51.540;11.870;2024-01-30T06:44:46;17.15;;;11.88;;
28828;SDS011;15966;51.540;11.870;2024-01-30T06:47:12;14.30;;;10.40;;
28828;SDS011;15966;51.540;11.870;2024-01-30T06:49:38;12.63;;;10.48;;
28828;SDS011;15966;51.540;11.870;2024-01-30T06:52:07;13.85;;;10.20;;
28828;SDS011;15966;51.540;11.870;2024-01-30T06:54:33;12.73;;;9.20;;
28828;SDS011;15966;51.540;11.870;2024-01-30T06:56:59;14.25;;;10.10;;
28828;SDS011;15966;51.540;11.870;2024-01-30T06:59:26;11.15;;;8.35;;
28828;SDS011;15966;51.540;11.870;2024-01-30T07:01:52;11.98;;;9.85;;
28828;SDS011;15966;51.540;11.870;2024-01-30T07:04:18;13.45;;;9.93;;
28828;SDS011;15966;51.540;11.870;2024-01-30T07:06:44;13.60;;;10.50;;
28828;SDS011;15966;51.540;11.870;2024-01-30T07:09:10;14.38;;;10.27;;
28828;SDS011;15966;51.540;11.870;2024-01-30T07:11:36;12.93;;;9.32;;
28828;SDS011;15966;51.540;11.870;2024-01-30T07:14:02;11.55;;;9.35;;
28828;SDS011;15966;51.540;11.870;2024-01-30T07:16:29;10.82;;;8.48;;
28828;SDS011;15966;51.540;11.870;2024-01-30T07:18:55;16.00;;;9.40;;
28828;SDS011;15966;51.540;11.870;2024-01-30T07:21:21;15.07;;;9.68;;
28828;SDS011;15966;51.540;11.870;2024-01-30T07:23:52;12.90;;;10.25;;
28828;SDS011;15966;51.540;11.870;2024-01-30T07:26:19;13.55;;;9.80;;
28828;SDS011;15966;51.540;11.870;2024-01-30T07:28:45;9.82;;;8.02;;
28828;SDS011;15966;51.540;11.870;2024-01-30T07:31:12;11.02;;;8.90;;
28828;SDS011;15966;51.540;11.870;2024-01-30T07:33:38;13.32;;;10.23;;
28828;SDS011;15966;51.540;11.870;2024-01-30T07:36:04;14.35;;;9.80;;
28828;SDS011;15966;51.540;11.870;2024-01-30T07:38:33;8.35;;;7.43;;
28828;SDS011;15966;51.540;11.870;2024-01-30T07:40:59;11.45;;;9.15;;
28828;SDS011;15966;51.540;11.870;2024-01-30T07:43:25;10.07;;;7.97;;
28828;SDS011;15966;51.540;11.870;2024-01-30T07:45:52;11.95;;;9.50;;
28828;SDS011;15966;51.540;11.870;2024-01-30T07:48:18;11.02;;;9.85;;
28828;SDS011;15966;51.540;11.870;2024-01-30T07:50:44;9.80;;;8.80;;
28828;SDS011;15966;51.540;11.870;2024-01-30T07:53:10;11.10;;;9.20;;
28828;SDS011;15966;51.540;11.870;2024-01-30T07:55:36;11.32;;;8.93;;
28828;SDS011;15966;51.540;11.870;2024-01-30T07:58:02;11.00;;;8.43;;
28828;SDS011;15966;51.540;11.870;2024-01-30T08:00:29;14.75;;;9.07;;
28828;SDS011;15966;51.540;11.870;2024-01-30T08:02:55;13.68;;;9.60;;
28828;SDS011;15966;51.540;11.870;2024-01-30T08:05:22;13.90;;;10.00;;
28828;SDS011;15966;51.540;11.870;2024-01-30T08:07:48;11.77;;;10.00;;
28828;SDS011;15966;51.540;11.870;2024-01-30T08:10:15;13.48;;;9.07;;
28828;SDS011;15966;51.540;11.870;2024-01-30T08:12:43;12.45;;;7.93;;
28828;SDS011;15966;51.540;11.870;2024-01-30T08:15:09;11.48;;;9.45;;
28828;SDS011;15966;51.540;11.870;2024-01-30T08:17:37;16.80;;;9.48;;
28828;SDS011;15966;51.540;11.870;2024-01-30T08:20:03;10.95;;;8.00;;
28828;SDS011;15966;51.540;11.870;2024-01-30T08:22:30;9.20;;;7.78;;
28828;SDS011;15966;51.540;11.870;2024-01-30T08:24:57;11.43;;;8.75;;
28828;SDS011;15966;51.540;11.870;2024-01-30T08:27:23;10.95;;;8.98;;
28828;SDS011;15966;51.540;11.870;2024-01-30T08:29:49;14.27;;;9.00;;
28828;SDS011;15966;51.540;11.870;2024-01-30T08:32:15;16.13;;;9.77;;
28828;SDS011;15966;51.540;11.870;2024-01-30T08:34:41;14.57;;;9.48;;
28828;SDS011;15966;51.540;11.870;2024-01-30T08:37:07;14.75;;;9.60;;
28828;SDS011;15966;51.540;11.870;2024-01-30T08:39:34;13.40;;;9.60;;
28828;SDS011;15966;51.540;11.870;2024-01-30T08:42:00;10.40;;;9.30;;
28828;SDS011;15966;51.540;11.870;2024-01-30T08:44:26;10.57;;;8.55;;
28828;SDS011;15966;51.540;11.870;2024-01-30T08:46:52;9.82;;;8.15;;
28828;SDS011;15966;51.540;11.870;2024-01-30T08:49:19;12.63;;;9.43;;
28828;SDS011;15966;51.540;11.870;2024-01-30T08:51:45;11.93;;;10.10;;
28828;SDS011;15966;51.540;11.870;2024-01-30T08:54:12;12.10;;;9.25;;
28828;SDS011;15966;51.540;11.870;2024-01-30T08:56:38;9.23;;;7.97;;
28828;SDS011;15966;51.540;11.870;2024-01-30T08:59:04;9.88;;;8.75;;
28828;SDS011;15966;51.540;11.870;2024-01-30T09:01:30;8.07;;;7.28;;
28828;SDS011;15966;51.540;11.870;2024-01-30T09:03:56;9.98;;;7.82;;
28828;SDS011;15966;51.540;11.870;2024-01-30T09:06:22;9.18;;;7.47;;
28828;SDS011;15966;51.540;11.870;2024-01-30T09:08:53;9.32;;;7.22;;
28828;SDS011;15966;51.540;11.870;2024-01-30T09:11:19;8.65;;;6.63;;
28828;SDS011;15966;51.540;11.870;2024-01-30T09:13:45;10.57;;;8.23;;
28828;SDS011;15966;51.540;11.870;2024-01-30T09:16:11;8.60;;;7.55;;
28828;SDS011;15966;51.540;11.870;2024-01-30T09:18:37;10.10;;;8.15;;
28828;SDS011;15966;51.540;11.870;2024-01-30T09:21:03;9.80;;;7.45;;
28828;SDS011;15966;51.540;11.870;2024-01-30T09:23:29;13.10;;;8.65;;
28828;SDS011;15966;51.540;11.870;2024-01-30T09:25:56;9.98;;;7.22;;
28828;SDS011;15966;51.540;11.870;2024-01-30T09:28:22;11.88;;;8.25;;
28828;SDS011;15966;51.540;11.870;2024-01-30T09:30:48;8.32;;;6.78;;
28828;SDS011;15966;51.540;11.870;2024-01-30T09:33:14;12.90;;;7.68;;
28828;SDS011;15966;51.540;11.870;2024-01-30T09:35:40;11.05;;;8.65;;
28828;SDS011;15966;51.540;11.870;2024-01-30T09:38:06;11.75;;;9.18;;
28828;SDS011;15966;51.540;11.870;2024-01-30T09:40:32;13.10;;;10.23;;
28828;SDS011;15966;51.540;11.870;2024-01-30T09:42:58;15.18;;;11.05;;
28828;SDS011;15966;51.540;11.870;2024-01-30T09:45:25;11.30;;;8.10;;
28828;SDS011;15966;51.540;11.870;2024-01-30T09:47:52;8.05;;;5.85;;
28828;SDS011;15966;51.540;11.870;2024-01-30T09:50:18;12.02;;;6.45;;
28828;SDS011;15966;51.540;11.870;2024-01-30T09:52:45;8.00;;;5.90;;
28828;SDS011;15966;51.540;11.870;2024-01-30T09:55:12;11.43;;;7.18;;
28828;SDS011;15966;51.540;11.870;2024-01-30T09:57:38;8.27;;;6.68;;
28828;SDS011;15966;51.540;11.870;2024-01-30T10:00:05;9.07;;;6.47;;
28828;SDS011;15966;51.540;11.870;2024-01-30T10:02:38;9.13;;;5.95;;
28828;SDS011;15966;51.540;11.870;2024-01-30T10:05:04;6.53;;;5.13;;
28828;SDS011;15966;51.540;11.870;2024-01-30T10:07:30;7.78;;;5.93;;
28828;SDS011;15966;51.540;11.870;2024-01-30T10:09:57;7.35;;;6.15;;
28828;SDS011;15966;51.540;11.870;2024-01-30T10:12:23;6.72;;;5.50;;
28828;SDS011;15966;51.540;11.870;2024-01-30T10:14:51;8.80;;;6.63;;
28828;SDS011;15966;51.540;11.870;2024-01-30T10:17:17;9.85;;;7.15;;
28828;SDS011;15966;51.540;11.870;2024-01-30T10:19:46;10.35;;;7.70;;
28828;SDS011;15966;51.540;11.870;2024-01-30T10:22:12;11.70;;;8.60;;
28828;SDS011;15966;51.540;11.870;2024-01-30T10:24:39;11.10;;;8.00;;
28828;SDS011;15966;51.540;11.870;2024-01-30T10:27:08;8.15;;;7.35;;
28828;SDS011;15966;51.540;11.870;2024-01-30T10:29:34;11.05;;;8.15;;
28828;SDS011;15966;51.540;11.870;2024-01-30T10:32:04;10.55;;;7.65;;
28828;SDS011;15966;51.540;11.870;2024-01-30T10:34:31;7.75;;;6.95;;
28828;SDS011;15966;51.540;11.870;2024-01-30T10:37:08;8.23;;;6.25;;
28828;SDS011;15966;51.540;11.870;2024-01-30T10:39:40;7.57;;;6.75;;
28828;SDS011;15966;51.540;11.870;2024-01-30T10:42:10;7.30;;;6.15;;
28828;SDS011;15966;51.540;11.870;2024-01-30T10:44:48;12.02;;;7.55;;
28828;SDS011;15966;51.540;11.870;2024-01-30T10:47:40;9.25;;;6.80;;
28828;SDS011;15966;51.540;11.870;2024-01-30T10:50:08;8.95;;;5.57;;
28828;SDS011;15966;51.540;11.870;2024-01-30T10:52:35;8.25;;;7.00;;
28828;SDS011;15966;51.540;11.870;2024-01-30T10:55:02;8.13;;;5.85;;
28828;SDS011;15966;51.540;11.870;2024-01-30T10:57:31;7.88;;;6.38;;
28828;SDS011;15966;51.540;11.870;2024-01-30T11:00:01;11.68;;;6.45;;
28828;SDS011;15966;51.540;11.870;2024-01-30T11:02:36;8.32;;;6.28;;
28828;SDS011;15966;51.540;11.870;2024-01-30T11:05:04;7.82;;;5.47;;
28828;SDS011;15966;51.540;11.870;2024-01-30T11:07:30;8.90;;;6.10;;
28828;SDS011;15966;51.540;11.870;2024-01-30T11:12:29;7.55;;;6.50;;
28828;SDS011;15966;51.540;11.870;2024-01-30T11:15:04;8.63;;;6.00;;
28828;SDS011;15966;51.540;11.870;2024-01-30T11:20:16;12.38;;;9.27;;
28828;SDS011;15966;51.540;11.870;2024-01-30T11:22:47;13.45;;;8.68;;
28828;SDS011;15966;51.540;11.870;2024-01-30T11:25:17;10.02;;;7.82;;
28828;SDS011;15966;51.540;11.870;2024-01-30T11:27:45;10.50;;;7.32;;
28828;SDS011;15966;51.540;11.870;2024-01-30T11:33:00;10.23;;;7.35;;
28828;SDS011;15966;51.540;11.870;2024-01-30T11:35:29;7.85;;;6.78;;
28828;SDS011;15966;51.540;11.870;2024-01-30T11:37:57;7.20;;;6.45;;
28828;SDS011;15966;51.540;11.870;2024-01-30T11:40:29;7.78;;;6.35;;
28828;SDS011;15966;51.540;11.870;2024-01-30T11:42:56;9.80;;;6.03;;
28828;SDS011;15966;51.540;11.870;2024-01-30T11:45:25;7.30;;;6.40;;
28828;SDS011;15966;51.540;11.870;2024-01-30T11:47:55;9.32;;;7.25;;
28828;SDS011;15966;51.540;11.870;2024-01-30T11:50:21;9.85;;;6.68;;
28828;SDS011;15966;51.540;11.870;2024-01-30T11:52:47;7.80;;;6.65;;
28828;SDS011;15966;51.540;11.870;2024-01-30T11:55:14;9.20;;;7.03;;
28828;SDS011;15966;51.540;11.870;2024-01-30T11:57:40;7.68;;;6.47;;
28828;SDS011;15966;51.540;11.870;2024-01-30T12:00:13;6.65;;;5.68;;
28828;SDS011;15966;51.540;11.870;2024-01-30T12:02:41;11.85;;;7.60;;
28828;SDS011;15966;51.540;11.870;2024-01-30T12:05:07;10.65;;;6.60;;
28828;SDS011;15966;51.540;11.870;2024-01-30T12:07:34;7.15;;;6.13;;
28828;SDS011;15966;51.540;11.870;2024-01-30T12:10:01;7.28;;;6.57;;
28828;SDS011;15966;51.540;11.870;2024-01-30T12:12:28;8.88;;;6.53;;
28828;SDS011;15966;51.540;11.870;2024-01-30T12:14:54;8.50;;;6.63;;
28828;SDS011;15966;51.540;11.870;2024-01-30T12:17:26;7.82;;;6.47;;
28828;SDS011;15966;51.540;11.870;2024-01-30T12:20:02;8.85;;;6.80;;
28828;SDS011;15966;51.540;11.870;2024-01-30T12:22:28;10.98;;;7.97;;
28828;SDS011;15966;51.540;11.870;2024-01-30T12:24:54;7.25;;;6.55;;
28828;SDS011;15966;51.540;11.870;2024-01-30T12:27:21;11.23;;;6.72;;
28828;SDS011;15966;51.540;11.870;2024-01-30T12:29:47;9.15;;;6.55;;
28828;SDS011;15966;51.540;11.870;2024-01-30T12:32:16;8.57;;;6.03;;
28828;SDS011;15966;51.540;11.870;2024-01-30T12:34:42;7.68;;;6.32;;
28828;SDS011;15966;51.540;11.870;2024-01-30T12:37:08;7.32;;;6.25;;
28828;SDS011;15966;51.540;11.870;2024-01-30T12:39:36;9.63;;;7.97;;
28828;SDS011;15966;51.540;11.870;2024-01-30T12:42:02;9.30;;;7.68;;
28828;SDS011;15966;51.540;11.870;2024-01-30T12:44:28;10.95;;;6.05;;
28828;SDS011;15966;51.540;11.870;2024-01-30T12:46:54;8.38;;;6.38;;
28828;SDS011;15966;51.540;11.870;2024-01-30T12:49:20;9.13;;;7.47;;
28828;SDS011;15966;51.540;11.870;2024-01-30T12:51:47;7.97;;;6.47;;
28828;SDS011;15966;51.540;11.870;2024-01-30T12:54:13;8.68;;;6.03;;
28828;SDS011;15966;51.540;11.870;2024-01-30T12:56:39;7.00;;;5.32;;
28828;SDS011;15966;51.540;11.870;2024-01-30T12:59:05;5.20;;;4.63;;
28828;SDS011;15966;51.540;11.870;2024-01-30T13:01:31;6.50;;;5.32;;
28828;SDS011;15966;51.540;11.870;2024-01-30T13:03:57;7.40;;;5.35;;
28828;SDS011;15966;51.540;11.870;2024-01-30T13:06:23;6.72;;;4.95;;
28828;SDS011;15966;51.540;11.870;2024-01-30T13:08:49;9.35;;;6.13;;
28828;SDS011;15966;51.540;11.870;2024-01-30T13:11:15;6.60;;;5.07;;
28828;SDS011;15966;51.540;11.870;2024-01-30T13:13:42;6.65;;;4.90;;
28828;SDS011;15966;51.540;11.870;2024-01-30T13:16:08;6.63;;;5.10;;
28828;SDS011;15966;51.540;11.870;2024-01-30T13:18:34;8.07;;;5.78;;
28828;SDS011;15966;51.540;11.870;2024-01-30T13:21:00;10.02;;;6.72;;
28828;SDS011;15966;51.540;11.870;2024-01-30T13:23:27;8.02;;;6.40;;
28828;SDS011;15966;51.540;11.870;2024-01-30T13:25:54;9.43;;;6.88;;
28828;SDS011;15966;51.540;11.870;2024-01-30T13:28:23;9.55;;;7.03;;
28828;SDS011;15966;51.540;11.870;2024-01-30T13:30:50;8.60;;;6.00;;
28828;SDS011;15966;51.540;11.870;2024-01-30T13:33:16;13.40;;;6.05;;
28828;SDS011;15966;51.540;11.870;2024-01-30T13:35:42;7.38;;;6.32;;
28828;SDS011;15966;51.540;11.870;2024-01-30T13:38:09;10.30;;;7.47;;
28828;SDS011;15966;51.540;11.870;2024-01-30T13:40:35;8.68;;;6.07;;
28828;SDS011;15966;51.540;11.870;2024-01-30T13:43:01;9.18;;;5.57;;
28828;SDS011;15966;51.540;11.870;2024-01-30T13:45:27;8.73;;;6.68;;
28828;SDS011;15966;51.540;11.870;2024-01-30T13:47:53;9.82;;;6.32;;
28828;SDS011;15966;51.540;11.870;2024-01-30T13:50:19;18.20;;;8.65;;
28828;SDS011;15966;51.540;11.870;2024-01-30T13:52:45;9.80;;;7.32;;
28828;SDS011;15966;51.540;11.870;2024-01-30T13:55:12;8.93;;;6.72;;
28828;SDS011;15966;51.540;11.870;2024-01-30T13:57:38;8.27;;;6.90;;
28828;SDS011;15966;51.540;11.870;2024-01-30T14:00:04;8.05;;;5.60;;
28828;SDS011;15966;51.540;11.870;2024-01-30T14:02:31;9.30;;;6.65;;
28828;SDS011;15966;51.540;11.870;2024-01-30T14:04:57;9.70;;;6.57;;
28828;SDS011;15966;51.540;11.870;2024-01-30T14:07:23;7.10;;;5.93;;
28828;SDS011;15966;51.540;11.870;2024-01-30T14:09:49;7.20;;;6.18;;
28828;SDS011;15966;51.540;11.870;2024-01-30T14:12:15;9.38;;;6.47;;
28828;SDS011;15966;51.540;11.870;2024-01-30T14:14:41;8.93;;;6.68;;
28828;SDS011;15966;51.540;11.870;2024-01-30T14:17:08;7.07;;;6.10;;
28828;SDS011;15966;51.540;11.870;2024-01-30T14:19:34;8.25;;;5.50;;
28828;SDS011;15966;51.540;11.870;2024-01-30T14:22:01;9.77;;;6.50;;
28828;SDS011;15966;51.540;11.870;2024-01-30T14:24:27;8.57;;;6.50;;
28828;SDS011;15966;51.540;11.870;2024-01-30T14:26:53;7.60;;;5.88;;
28828;SDS011;15966;51.540;11.870;2024-01-30T14:29:19;8.50;;;6.97;;